sensor_id;sensor_type;location;lat;lon;timestamp;P1;durP1;ratioP1;P2;durP2;ratioP2
25327;SDS011;13279;51.300;12.394;2023-03-01T00:01:30;16.37;;;8.80;;
25327;SDS011;13279;51.300;12.394;2023-03-01T00:03:58;17.57;;;8.83;;
25327;SDS011;13279;51.300;12.394;2023-03-01T00:06:26;17.67;;;9.83;;
25327;SDS011;13279;51.300;12.394;2023-03-01T00:08:55;14.17;;;8.40;;
25327;SDS011;13279;51.300;12.394;2023-03-01T00:11:23;15.13;;;8.13;;
25327;SDS011;13279;51.300;12.394;2023-03-01T00:13:52;16.57;;;9.60;;
25327;SDS011;13279;51.300;12.394;2023-03-01T00:16:22;14.97;;;8.57;;
25327;SDS011;13279;51.300;12.394;2023-03-01T00:18:50;14.40;;;7.97;;
25327;SDS011;13279;51.300;12.394;2023-03-01T00:21:19;19.60;;;8.30;;
25327;SDS011;13279;51.300;12.394;2023-03-01T00:23:47;22.80;;;8.50;;
25327;SDS011;13279;51.300;12.394;2023-03-01T00:26:17;21.53;;;9.87;;
25327;SDS011;13279;51.300;12.394;2023-03-01T00:28:46;17.27;;;8.43;;
25327;SDS011;13279;51.300;12.394;2023-03-01T00:31:14;17.83;;;8.47;;
25327;SDS011;13279;51.300;12.394;2023-03-01T00:33:43;23.87;;;10.10;;
25327;SDS011;13279;51.300;12.394;2023-03-01T00:36:12;19.20;;;9.33;;
25327;SDS011;13279;51.300;12.394;2023-03-01T00:38:42;19.13;;;9.27;;
25327;SDS011;13279;51.300;12.394;2023-03-01T00:41:11;22.53;;;9.00;;
25327;SDS011;13279;51.300;12.394;2023-03-01T00:43:42;14.97;;;8.73;;
25327;SDS011;13279;51.300;12.394;2023-03-01T00:46:11;14.67;;;8.50;;
25327;SDS011;13279;51.300;12.394;2023-03-01T00:48:39;14.03;;;8.13;;
25327;SDS011;13279;51.300;12.394;2023-03-01T00:51:08;22.00;;;9.43;;
25327;SDS011;13279;51.300;12.394;2023-03-01T00:53:37;17.57;;;8.50;;
25327;SDS011;13279;51.300;12.394;2023-03-01T00:56:06;15.57;;;8.23;;
25327;SDS011;13279;51.300;12.394;2023-03-01T00:58:35;20.30;;;8.83;;
25327;SDS011;13279;51.300;12.394;2023-03-01T01:01:08;17.70;;;8.43;;
25327;SDS011;13279;51.300;12.394;2023-03-01T01:03:43;13.17;;;8.23;;
25327;SDS011;13279;51.300;12.394;2023-03-01T01:06:15;12.03;;;7.23;;
25327;SDS011;13279;51.300;12.394;2023-03-01T01:08:43;16.77;;;8.10;;
25327;SDS011;13279;51.300;12.394;2023-03-01T01:11:11;19.07;;;8.77;;
25327;SDS011;13279;51.300;12.394;2023-03-01T01:13:39;15.10;;;8.50;;
25327;SDS011;13279;51.300;12.394;2023-03-01T01:16:09;16.43;;;8.37;;
25327;SDS011;13279;51.300;12.394;2023-03-01T01:18:36;19.23;;;9.53;;
25327;SDS011;13279;51.300;12.394;2023-03-01T01:21:05;21.30;;;9.37;;
25327;SDS011;13279;51.300;12.394;2023-03-01T01:23:34;19.73;;;9.37;;
25327;SDS011;13279;51.300;12.394;2023-03-01T01:26:05;18.40;;;8.63;;
25327;SDS011;13279;51.300;12.394;2023-03-01T01:28:33;17.27;;;8.17;;
25327;SDS011;13279;51.300;12.394;2023-03-01T01:31:01;20.77;;;9.07;;
25327;SDS011;13279;51.300;12.394;2023-03-01T01:33:31;19.73;;;8.37;;
25327;SDS011;13279;51.300;12.394;2023-03-01T01:35:58;17.30;;;8.33;;
25327;SDS011;13279;51.300;12.394;2023-03-01T01:38:26;17.50;;;8.13;;
25327;SDS011;13279;51.300;12.394;2023-03-01T01:40:54;22.40;;;9.03;;
25327;SDS011;13279;51.300;12.394;2023-03-01T01:43:22;15.73;;;8.50;;
25327;SDS011;13279;51.300;12.394;2023-03-01T01:45:52;12.67;;;7.57;;
25327;SDS011;13279;51.300;12.394;2023-03-01T01:48:24;17.27;;;7.90;;
25327;SDS011;13279;51.300;12.394;2023-03-01T01:51:07;23.33;;;8.87;;
25327;SDS011;13279;51.300;12.394;2023-03-01T01:53:38;14.67;;;8.50;;
25327;SDS011;13279;51.300;12.394;2023-03-01T01:56:07;18.90;;;8.93;;
25327;SDS011;13279;51.300;12.394;2023-03-01T01:58:37;17.30;;;9.23;;
25327;SDS011;13279;51.300;12.394;2023-03-01T02:01:05;18.97;;;8.93;;
25327;SDS011;13279;51.300;12.394;2023-03-01T02:03:34;19.83;;;8.80;;
25327;SDS011;13279;51.300;12.394;2023-03-01T02:06:12;21.23;;;9.13;;
25327;SDS011;13279;51.300;12.394;2023-03-01T02:08:47;16.90;;;8.30;;
25327;SDS011;13279;51.300;12.394;2023-03-01T02:11:17;13.87;;;7.83;;
25327;SDS011;13279;51.300;12.394;2023-03-01T02:13:47;19.83;;;9.20;;
25327;SDS011;13279;51.300;12.394;2023-03-01T02:16:16;15.27;;;8.80;;
25327;SDS011;13279;51.300;12.394;2023-03-01T02:18:43;17.50;;;9.03;;
25327;SDS011;13279;51.300;12.394;2023-03-01T02:21:17;15.40;;;8.33;;
25327;SDS011;13279;51.300;12.394;2023-03-01T02:23:56;19.43;;;9.20;;
25327;SDS011;13279;51.300;12.394;2023-03-01T02:26:32;19.43;;;9.90;;
25327;SDS011;13279;51.300;12.394;2023-03-01T02:29:07;18.10;;;7.70;;
25327;SDS011;13279;51.300;12.394;2023-03-01T02:31:34;16.33;;;8.40;;
25327;SDS011;13279;51.300;12.394;2023-03-01T02:34:07;14.03;;;7.40;;
25327;SDS011;13279;51.300;12.394;2023-03-01T02:36:37;18.40;;;8.63;;
25327;SDS011;13279;51.300;12.394;2023-03-01T02:39:09;22.77;;;8.20;;
25327;SDS011;13279;51.300;12.394;2023-03-01T02:41:44;18.97;;;8.53;;
25327;SDS011;13279;51.300;12.394;2023-03-01T02:44:16;19.90;;;8.37;;
25327;SDS011;13279;51.300;12.394;2023-03-01T02:46:44;16.80;;;7.87;;
25327;SDS011;13279;51.300;12.394;2023-03-01T02:49:20;15.67;;;8.33;;
25327;SDS011;13279;51.300;12.394;2023-03-01T02:51:52;16.63;;;7.23;;
25327;SDS011;13279;51.300;12.394;2023-03-01T02:54:40;16.47;;;7.57;;
25327;SDS011;13279;51.300;12.394;2023-03-01T02:57:12;23.97;;;8.80;;
25327;SDS011;13279;51.300;12.394;2023-03-01T02:59:41;16.73;;;7.83;;
25327;SDS011;13279;51.300;12.394;2023-03-01T03:02:18;17.93;;;9.67;;
25327;SDS011;13279;51.300;12.394;2023-03-01T03:05:05;18.43;;;7.47;;
25327;SDS011;13279;51.300;12.394;2023-03-01T03:07:36;15.13;;;8.10;;
25327;SDS011;13279;51.300;12.394;2023-03-01T03:10:05;16.03;;;8.50;;
25327;SDS011;13279;51.300;12.394;2023-03-01T03:12:37;18.50;;;8.47;;
25327;SDS011;13279;51.300;12.394;2023-03-01T03:15:08;16.53;;;8.03;;
25327;SDS011;13279;51.300;12.394;2023-03-01T03:17:38;16.47;;;8.07;;
25327;SDS011;13279;51.300;12.394;2023-03-01T03:20:08;14.50;;;8.30;;
25327;SDS011;13279;51.300;12.394;2023-03-01T03:22:38;17.90;;;7.50;;
25327;SDS011;13279;51.300;12.394;2023-03-01T03:25:06;21.27;;;8.80;;
25327;SDS011;13279;51.300;12.394;2023-03-01T03:27:39;19.03;;;8.30;;
25327;SDS011;13279;51.300;12.394;2023-03-01T03:30:12;15.77;;;7.90;;
25327;SDS011;13279;51.300;12.394;2023-03-01T03:32:42;16.23;;;8.30;;
25327;SDS011;13279;51.300;12.394;2023-03-01T03:35:18;21.13;;;9.07;;
25327;SDS011;13279;51.300;12.394;2023-03-01T03:37:45;17.13;;;8.57;;
25327;SDS011;13279;51.300;12.394;2023-03-01T03:40:29;16.93;;;8.50;;
25327;SDS011;13279;51.300;12.394;2023-03-01T03:42:58;17.03;;;8.57;;
25327;SDS011;13279;51.300;12.394;2023-03-01T03:45:28;22.00;;;8.63;;
25327;SDS011;13279;51.300;12.394;2023-03-01T03:47:55;21.77;;;8.17;;
25327;SDS011;13279;51.300;12.394;2023-03-01T03:50:22;14.47;;;8.17;;
25327;SDS011;13279;51.300;12.394;2023-03-01T03:52:49;17.40;;;8.03;;
25327;SDS011;13279;51.300;12.394;2023-03-01T03:55:17;14.57;;;8.00;;
25327;SDS011;13279;51.300;12.394;2023-03-01T03:57:45;15.10;;;7.83;;
25327;SDS011;13279;51.300;12.394;2023-03-01T04:00:18;17.30;;;8.53;;
25327;SDS011;13279;51.300;12.394;2023-03-01T04:02:48;16.37;;;7.87;;
25327;SDS011;13279;51.300;12.394;2023-03-01T04:05:16;21.03;;;8.23;;
25327;SDS011;13279;51.300;12.394;2023-03-01T04:07:45;14.37;;;8.00;;
25327;SDS011;13279;51.300;12.394;2023-03-01T04:10:15;21.67;;;8.70;;
25327;SDS011;13279;51.300;12.394;2023-03-01T04:12:44;14.73;;;8.03;;
25327;SDS011;13279;51.300;12.394;2023-03-01T04:15:11;17.80;;;8.60;;
25327;SDS011;13279;51.300;12.394;2023-03-01T04:17:41;21.07;;;9.63;;
25327;SDS011;13279;51.300;12.394;2023-03-01T04:20:12;16.10;;;8.23;;
25327;SDS011;13279;51.300;12.394;2023-03-01T04:22:43;15.73;;;8.30;;
25327;SDS011;13279;51.300;12.394;2023-03-01T04:25:12;17.83;;;9.13;;
25327;SDS011;13279;51.300;12.394;2023-03-01T04:27:40;20.80;;;9.60;;
25327;SDS011;13279;51.300;12.394;2023-03-01T04:30:07;19.20;;;8.23;;
25327;SDS011;13279;51.300;12.394;2023-03-01T04:32:36;15.23;;;7.97;;
25327;SDS011;13279;51.300;12.394;2023-03-01T04:35:03;18.93;;;8.40;;
25327;SDS011;13279;51.300;12.394;2023-03-01T04:37:32;23.33;;;9.50;;
25327;SDS011;13279;51.300;12.394;2023-03-01T04:40:00;17.27;;;8.60;;
25327;SDS011;13279;51.300;12.394;2023-03-01T04:42:33;14.47;;;8.40;;
25327;SDS011;13279;51.300;12.394;2023-03-01T04:45:01;19.97;;;8.67;;
25327;SDS011;13279;51.300;12.394;2023-03-01T04:47:28;18.67;;;8.77;;
25327;SDS011;13279;51.300;12.394;2023-03-01T04:49:56;21.60;;;9.37;;
25327;SDS011;13279;51.300;12.394;2023-03-01T04:52:23;19.63;;;8.67;;
25327;SDS011;13279;51.300;12.394;2023-03-01T04:54:51;16.57;;;9.23;;
25327;SDS011;13279;51.300;12.394;2023-03-01T04:57:19;20.77;;;8.70;;
25327;SDS011;13279;51.300;12.394;2023-03-01T04:59:46;16.40;;;9.13;;
25327;SDS011;13279;51.300;12.394;2023-03-01T05:02:13;17.90;;;8.50;;
25327;SDS011;13279;51.300;12.394;2023-03-01T05:04:40;23.93;;;9.93;;
25327;SDS011;13279;51.300;12.394;2023-03-01T05:07:08;20.80;;;9.77;;
25327;SDS011;13279;51.300;12.394;2023-03-01T05:09:38;19.27;;;9.37;;
25327;SDS011;13279;51.300;12.394;2023-03-01T05:12:07;17.73;;;8.80;;
25327;SDS011;13279;51.300;12.394;2023-03-01T05:14:34;21.23;;;9.67;;
25327;SDS011;13279;51.300;12.394;2023-03-01T05:17:04;22.10;;;9.53;;
25327;SDS011;13279;51.300;12.394;2023-03-01T05:19:31;18.30;;;9.77;;
25327;SDS011;13279;51.300;12.394;2023-03-01T05:21:59;18.33;;;9.43;;
25327;SDS011;13279;51.300;12.394;2023-03-01T05:24:31;20.87;;;9.03;;
25327;SDS011;13279;51.300;12.394;2023-03-01T05:26:59;23.73;;;9.13;;
25327;SDS011;13279;51.300;12.394;2023-03-01T05:29:30;15.90;;;9.03;;
25327;SDS011;13279;51.300;12.394;2023-03-01T05:32:01;23.73;;;9.30;;
25327;SDS011;13279;51.300;12.394;2023-03-01T05:34:29;23.50;;;10.60;;
25327;SDS011;13279;51.300;12.394;2023-03-01T05:36:58;20.37;;;10.70;;
25327;SDS011;13279;51.300;12.394;2023-03-01T05:39:27;20.43;;;9.13;;
25327;SDS011;13279;51.300;12.394;2023-03-01T05:41:57;18.73;;;9.93;;
25327;SDS011;13279;51.300;12.394;2023-03-01T05:44:26;28.03;;;11.07;;
25327;SDS011;13279;51.300;12.394;2023-03-01T05:46:56;22.63;;;10.87;;
25327;SDS011;13279;51.300;12.394;2023-03-01T05:49:23;23.10;;;10.77;;
25327;SDS011;13279;51.300;12.394;2023-03-01T05:51:52;31.00;;;10.13;;
25327;SDS011;13279;51.300;12.394;2023-03-01T05:54:20;20.60;;;10.30;;
25327;SDS011;13279;51.300;12.394;2023-03-01T05:56:48;23.87;;;11.27;;
25327;SDS011;13279;51.300;12.394;2023-03-01T05:59:15;28.00;;;11.57;;
25327;SDS011;13279;51.300;12.394;2023-03-01T06:01:44;21.80;;;9.77;;
25327;SDS011;13279;51.300;12.394;2023-03-01T06:04:11;26.70;;;11.27;;
25327;SDS011;13279;51.300;12.394;2023-03-01T06:06:39;19.83;;;10.07;;
25327;SDS011;13279;51.300;12.394;2023-03-01T06:09:06;18.53;;;10.27;;
25327;SDS011;13279;51.300;12.394;2023-03-01T06:11:35;24.77;;;10.57;;
25327;SDS011;13279;51.300;12.394;2023-03-01T06:14:03;26.43;;;10.57;;
25327;SDS011;13279;51.300;12.394;2023-03-01T06:16:32;24.70;;;11.07;;
25327;SDS011;13279;51.300;12.394;2023-03-01T06:19:00;25.10;;;10.97;;
25327;SDS011;13279;51.300;12.394;2023-03-01T06:21:28;19.03;;;10.50;;
25327;SDS011;13279;51.300;12.394;2023-03-01T06:23:55;22.93;;;10.70;;
25327;SDS011;13279;51.300;12.394;2023-03-01T06:26:23;22.37;;;11.43;;
25327;SDS011;13279;51.300;12.394;2023-03-01T06:28:50;20.63;;;10.87;;
25327;SDS011;13279;51.300;12.394;2023-03-01T06:31:17;18.40;;;10.07;;
25327;SDS011;13279;51.300;12.394;2023-03-01T06:33:44;26.83;;;11.73;;
25327;SDS011;13279;51.300;12.394;2023-03-01T06:36:14;19.23;;;10.97;;
25327;SDS011;13279;51.300;12.394;2023-03-01T06:38:43;24.60;;;10.63;;
25327;SDS011;13279;51.300;12.394;2023-03-01T06:41:11;23.33;;;11.63;;
25327;SDS011;13279;51.300;12.394;2023-03-01T06:43:38;26.97;;;12.20;;
25327;SDS011;13279;51.300;12.394;2023-03-01T06:46:05;23.53;;;11.53;;
25327;SDS011;13279;51.300;12.394;2023-03-01T06:48:33;21.93;;;11.67;;
25327;SDS011;13279;51.300;12.394;2023-03-01T06:51:01;24.47;;;12.53;;
25327;SDS011;13279;51.300;12.394;2023-03-01T06:53:30;21.20;;;11.07;;
25327;SDS011;13279;51.300;12.394;2023-03-01T06:55:57;25.57;;;11.60;;
25327;SDS011;13279;51.300;12.394;2023-03-01T06:58:25;18.23;;;10.67;;
25327;SDS011;13279;51.300;12.394;2023-03-01T07:00:52;24.63;;;11.07;;
25327;SDS011;13279;51.300;12.394;2023-03-01T07:03:20;22.93;;;10.20;;
25327;SDS011;13279;51.300;12.394;2023-03-01T07:05:48;25.80;;;10.60;;
25327;SDS011;13279;51.300;12.394;2023-03-01T07:08:17;23.73;;;11.13;;
25327;SDS011;13279;51.300;12.394;2023-03-01T07:10:46;22.13;;;12.20;;
25327;SDS011;13279;51.300;12.394;2023-03-01T07:13:13;23.40;;;11.93;;
25327;SDS011;13279;51.300;12.394;2023-03-01T07:15:41;20.33;;;10.73;;
25327;SDS011;13279;51.300;12.394;2023-03-01T07:18:08;25.87;;;12.07;;
25327;SDS011;13279;51.300;12.394;2023-03-01T07:20:36;27.87;;;12.17;;
25327;SDS011;13279;51.300;12.394;2023-03-01T07:23:05;24.47;;;12.13;;
25327;SDS011;13279;51.300;12.394;2023-03-01T07:25:33;26.97;;;11.83;;
25327;SDS011;13279;51.300;12.394;2023-03-01T07:28:02;25.93;;;12.00;;
25327;SDS011;13279;51.300;12.394;2023-03-01T07:30:30;22.73;;;10.83;;
25327;SDS011;13279;51.300;12.394;2023-03-01T07:32:57;23.50;;;11.87;;
25327;SDS011;13279;51.300;12.394;2023-03-01T07:35:26;20.07;;;10.93;;
25327;SDS011;13279;51.300;12.394;2023-03-01T07:37:53;21.37;;;11.07;;
25327;SDS011;13279;51.300;12.394;2023-03-01T07:40:21;23.83;;;10.43;;
25327;SDS011;13279;51.300;12.394;2023-03-01T07:42:48;24.73;;;11.97;;
25327;SDS011;13279;51.300;12.394;2023-03-01T07:45:17;27.27;;;12.10;;
25327;SDS011;13279;51.300;12.394;2023-03-01T07:47:45;28.80;;;11.33;;
25327;SDS011;13279;51.300;12.394;2023-03-01T07:50:12;27.50;;;11.83;;
25327;SDS011;13279;51.300;12.394;2023-03-01T07:52:41;26.17;;;11.63;;
25327;SDS011;13279;51.300;12.394;2023-03-01T07:55:09;24.33;;;12.10;;
25327;SDS011;13279;51.300;12.394;2023-03-01T07:57:51;28.60;;;13.53;;
25327;SDS011;13279;51.300;12.394;2023-03-01T08:00:24;20.70;;;11.13;;
25327;SDS011;13279;51.300;12.394;2023-03-01T08:02:51;24.80;;;11.70;;
25327;SDS011;13279;51.300;12.394;2023-03-01T08:05:20;31.87;;;11.30;;
25327;SDS011;13279;51.300;12.394;2023-03-01T08:08:01;25.13;;;12.07;;
25327;SDS011;13279;51.300;12.394;2023-03-01T08:10:29;22.50;;;11.40;;
25327;SDS011;13279;51.300;12.394;2023-03-01T08:12:59;26.13;;;11.93;;
25327;SDS011;13279;51.300;12.394;2023-03-01T08:15:28;21.57;;;11.57;;
25327;SDS011;13279;51.300;12.394;2023-03-01T08:17:59;28.33;;;11.40;;
25327;SDS011;13279;51.300;12.394;2023-03-01T08:20:26;20.27;;;10.97;;
25327;SDS011;13279;51.300;12.394;2023-03-01T08:22:54;22.70;;;11.30;;
25327;SDS011;13279;51.300;12.394;2023-03-01T08:25:25;23.37;;;11.87;;
25327;SDS011;13279;51.300;12.394;2023-03-01T08:27:53;20.73;;;11.27;;
25327;SDS011;13279;51.300;12.394;2023-03-01T08:30:20;21.10;;;11.50;;
25327;SDS011;13279;51.300;12.394;2023-03-01T08:32:50;27.57;;;12.77;;
25327;SDS011;13279;51.300;12.394;2023-03-01T08:35:20;24.27;;;12.60;;
25327;SDS011;13279;51.300;12.394;2023-03-01T08:37:48;25.70;;;12.30;;
25327;SDS011;13279;51.300;12.394;2023-03-01T08:40:33;26.40;;;11.10;;
25327;SDS011;13279;51.300;12.394;2023-03-01T08:43:42;20.47;;;10.73;;
25327;SDS011;13279;51.300;12.394;2023-03-01T08:46:10;22.57;;;11.43;;
25327;SDS011;13279;51.300;12.394;2023-03-01T08:48:40;24.47;;;11.90;;
25327;SDS011;13279;51.300;12.394;2023-03-01T08:51:09;26.13;;;12.67;;
25327;SDS011;13279;51.300;12.394;2023-03-01T08:53:37;26.13;;;11.90;;
25327;SDS011;13279;51.300;12.394;2023-03-01T08:56:06;35.23;;;12.27;;
25327;SDS011;13279;51.300;12.394;2023-03-01T08:58:34;29.67;;;12.03;;
25327;SDS011;13279;51.300;12.394;2023-03-01T09:01:06;26.63;;;12.10;;
25327;SDS011;13279;51.300;12.394;2023-03-01T09:03:34;24.60;;;11.80;;
25327;SDS011;13279;51.300;12.394;2023-03-01T09:06:04;31.27;;;13.10;;
25327;SDS011;13279;51.300;12.394;2023-03-01T09:08:34;24.00;;;12.10;;
25327;SDS011;13279;51.300;12.394;2023-03-01T09:11:02;25.17;;;12.27;;
25327;SDS011;13279;51.300;12.394;2023-03-01T09:13:30;22.23;;;12.13;;
25327;SDS011;13279;51.300;12.394;2023-03-01T09:15:57;27.10;;;11.80;;
25327;SDS011;13279;51.300;12.394;2023-03-01T09:18:25;24.93;;;11.70;;
25327;SDS011;13279;51.300;12.394;2023-03-01T09:20:53;22.77;;;10.93;;
25327;SDS011;13279;51.300;12.394;2023-03-01T09:23:28;25.37;;;12.67;;
25327;SDS011;13279;51.300;12.394;2023-03-01T09:25:55;21.53;;;11.43;;
25327;SDS011;13279;51.300;12.394;2023-03-01T09:28:23;28.87;;;11.83;;
25327;SDS011;13279;51.300;12.394;2023-03-01T09:30:50;24.13;;;11.83;;
25327;SDS011;13279;51.300;12.394;2023-03-01T09:33:18;25.87;;;12.37;;
25327;SDS011;13279;51.300;12.394;2023-03-01T09:35:46;24.97;;;12.00;;
25327;SDS011;13279;51.300;12.394;2023-03-01T09:38:13;28.27;;;12.23;;
25327;SDS011;13279;51.300;12.394;2023-03-01T09:40:45;22.83;;;11.93;;
25327;SDS011;13279;51.300;12.394;2023-03-01T09:43:15;24.57;;;11.60;;
25327;SDS011;13279;51.300;12.394;2023-03-01T09:45:49;26.77;;;13.07;;
25327;SDS011;13279;51.300;12.394;2023-03-01T09:48:21;25.77;;;12.23;;
25327;SDS011;13279;51.300;12.394;2023-03-01T09:50:53;30.53;;;12.80;;
25327;SDS011;13279;51.300;12.394;2023-03-01T09:53:21;27.10;;;12.20;;
25327;SDS011;13279;51.300;12.394;2023-03-01T09:55:57;23.57;;;12.80;;
25327;SDS011;13279;51.300;12.394;2023-03-01T09:58:33;25.50;;;13.23;;
25327;SDS011;13279;51.300;12.394;2023-03-01T10:01:10;24.73;;;12.67;;
25327;SDS011;13279;51.300;12.394;2023-03-01T10:03:57;26.47;;;12.27;;
25327;SDS011;13279;51.300;12.394;2023-03-01T10:06:36;24.10;;;11.27;;
25327;SDS011;13279;51.300;12.394;2023-03-01T10:09:07;26.60;;;12.37;;
25327;SDS011;13279;51.300;12.394;2023-03-01T10:11:43;26.40;;;12.97;;
25327;SDS011;13279;51.300;12.394;2023-03-01T10:14:16;25.17;;;12.17;;
25327;SDS011;13279;51.300;12.394;2023-03-01T10:16:57;26.23;;;11.83;;
25327;SDS011;13279;51.300;12.394;2023-03-01T10:19:30;23.63;;;12.50;;
25327;SDS011;13279;51.300;12.394;2023-03-01T10:22:03;25.77;;;12.43;;
25327;SDS011;13279;51.300;12.394;2023-03-01T10:24:37;28.20;;;12.27;;
25327;SDS011;13279;51.300;12.394;2023-03-01T10:27:07;21.87;;;11.70;;
25327;SDS011;13279;51.300;12.394;2023-03-01T10:29:40;22.50;;;11.73;;
25327;SDS011;13279;51.300;12.394;2023-03-01T10:32:15;25.10;;;12.17;;
25327;SDS011;13279;51.300;12.394;2023-03-01T10:34:49;23.50;;;12.07;;
25327;SDS011;13279;51.300;12.394;2023-03-01T10:37:17;24.97;;;11.73;;
25327;SDS011;13279;51.300;12.394;2023-03-01T10:39:54;21.47;;;11.80;;
25327;SDS011;13279;51.300;12.394;2023-03-01T10:42:33;32.97;;;12.17;;
25327;SDS011;13279;51.300;12.394;2023-03-01T10:45:14;21.40;;;10.73;;
25327;SDS011;13279;51.300;12.394;2023-03-01T10:47:55;24.40;;;12.43;;
25327;SDS011;13279;51.300;12.394;2023-03-01T10:50:31;21.67;;;12.37;;
25327;SDS011;13279;51.300;12.394;2023-03-01T10:52:59;23.47;;;12.07;;
25327;SDS011;13279;51.300;12.394;2023-03-01T10:55:31;29.60;;;11.47;;
25327;SDS011;13279;51.300;12.394;2023-03-01T10:58:08;24.23;;;10.90;;
25327;SDS011;13279;51.300;12.394;2023-03-01T11:00:45;26.07;;;11.47;;
25327;SDS011;13279;51.300;12.394;2023-03-01T11:03:16;21.80;;;10.47;;
25327;SDS011;13279;51.300;12.394;2023-03-01T11:05:55;21.07;;;10.47;;
25327;SDS011;13279;51.300;12.394;2023-03-01T11:08:32;21.10;;;9.60;;
25327;SDS011;13279;51.300;12.394;2023-03-01T11:11:06;18.83;;;9.83;;
25327;SDS011;13279;51.300;12.394;2023-03-01T11:13:49;25.70;;;10.30;;
25327;SDS011;13279;51.300;12.394;2023-03-01T11:16:25;17.73;;;10.13;;
25327;SDS011;13279;51.300;12.394;2023-03-01T11:19:01;21.70;;;9.97;;
25327;SDS011;13279;51.300;12.394;2023-03-01T11:21:43;21.47;;;10.57;;
25327;SDS011;13279;51.300;12.394;2023-03-01T11:24:17;21.20;;;11.03;;
25327;SDS011;13279;51.300;12.394;2023-03-01T11:26:47;20.33;;;10.20;;
25327;SDS011;13279;51.300;12.394;2023-03-01T11:29:26;23.03;;;11.47;;
25327;SDS011;13279;51.300;12.394;2023-03-01T11:31:59;22.60;;;11.73;;
25327;SDS011;13279;51.300;12.394;2023-03-01T11:34:39;23.50;;;12.80;;
25327;SDS011;13279;51.300;12.394;2023-03-01T11:37:13;24.33;;;12.23;;
25327;SDS011;13279;51.300;12.394;2023-03-01T11:39:55;25.63;;;12.67;;
25327;SDS011;13279;51.300;12.394;2023-03-01T11:42:36;27.67;;;13.03;;
25327;SDS011;13279;51.300;12.394;2023-03-01T11:45:12;29.80;;;13.17;;
25327;SDS011;13279;51.300;12.394;2023-03-01T11:47:43;28.03;;;13.47;;
25327;SDS011;13279;51.300;12.394;2023-03-01T11:50:40;25.57;;;12.33;;
25327;SDS011;13279;51.300;12.394;2023-03-01T11:53:18;29.43;;;15.50;;
25327;SDS011;13279;51.300;12.394;2023-03-01T11:56:02;29.77;;;14.33;;
25327;SDS011;13279;51.300;12.394;2023-03-01T11:58:40;23.53;;;12.60;;
25327;SDS011;13279;51.300;12.394;2023-03-01T12:01:32;23.27;;;12.50;;
25327;SDS011;13279;51.300;12.394;2023-03-01T12:04:21;26.47;;;12.80;;
25327;SDS011;13279;51.300;12.394;2023-03-01T12:07:00;24.27;;;12.23;;
25327;SDS011;13279;51.300;12.394;2023-03-01T12:09:44;27.63;;;14.20;;
25327;SDS011;13279;51.300;12.394;2023-03-01T12:12:34;25.63;;;13.30;;
25327;SDS011;13279;51.300;12.394;2023-03-01T12:15:25;25.57;;;12.87;;
25327;SDS011;13279;51.300;12.394;2023-03-01T12:18:13;24.27;;;12.67;;
25327;SDS011;13279;51.300;12.394;2023-03-01T12:21:20;23.63;;;12.97;;
25327;SDS011;13279;51.300;12.394;2023-03-01T12:24:07;21.57;;;12.30;;
25327;SDS011;13279;51.300;12.394;2023-03-01T12:27:04;22.53;;;12.40;;
25327;SDS011;13279;51.300;12.394;2023-03-01T12:29:46;22.57;;;12.07;;
25327;SDS011;13279;51.300;12.394;2023-03-01T12:32:24;22.53;;;12.00;;
25327;SDS011;13279;51.300;12.394;2023-03-01T12:35:19;23.50;;;12.37;;
25327;SDS011;13279;51.300;12.394;2023-03-01T12:38:17;29.73;;;11.23;;
25327;SDS011;13279;51.300;12.394;2023-03-01T12:43:57;22.27;;;10.27;;
25327;SDS011;13279;51.300;12.394;2023-03-01T12:46:38;19.57;;;10.33;;
25327;SDS011;13279;51.300;12.394;2023-03-01T12:49:19;22.80;;;10.90;;
25327;SDS011;13279;51.300;12.394;2023-03-01T12:51:56;19.80;;;10.30;;
25327;SDS011;13279;51.300;12.394;2023-03-01T12:54:28;25.53;;;10.33;;
25327;SDS011;13279;51.300;12.394;2023-03-01T12:56:59;18.93;;;10.47;;
25327;SDS011;13279;51.300;12.394;2023-03-01T12:59:34;18.63;;;9.33;;
25327;SDS011;13279;51.300;12.394;2023-03-01T13:02:12;17.93;;;10.97;;
25327;SDS011;13279;51.300;12.394;2023-03-01T13:04:53;16.30;;;9.73;;
25327;SDS011;13279;51.300;12.394;2023-03-01T13:07:33;22.70;;;9.43;;
25327;SDS011;13279;51.300;12.394;2023-03-01T13:12:53;18.30;;;10.00;;
25327;SDS011;13279;51.300;12.394;2023-03-01T13:15:30;17.87;;;9.47;;
25327;SDS011;13279;51.300;12.394;2023-03-01T13:17:59;20.53;;;9.60;;
25327;SDS011;13279;51.300;12.394;2023-03-01T13:20:45;19.20;;;10.40;;
25327;SDS011;13279;51.300;12.394;2023-03-01T13:23:25;24.77;;;10.97;;
25327;SDS011;13279;51.300;12.394;2023-03-01T13:26:12;21.17;;;10.93;;
25327;SDS011;13279;51.300;12.394;2023-03-01T13:28:51;17.27;;;9.43;;
25327;SDS011;13279;51.300;12.394;2023-03-01T13:37:27;21.10;;;9.63;;
25327;SDS011;13279;51.300;12.394;2023-03-01T13:39:58;18.07;;;9.37;;
25327;SDS011;13279;51.300;12.394;2023-03-01T13:42:32;20.03;;;10.10;;
25327;SDS011;13279;51.300;12.394;2023-03-01T13:48:03;17.70;;;9.60;;
25327;SDS011;13279;51.300;12.394;2023-03-01T13:50:38;19.77;;;10.40;;
25327;SDS011;13279;51.300;12.394;2023-03-01T13:53:14;16.47;;;9.47;;
25327;SDS011;13279;51.300;12.394;2023-03-01T13:55:46;16.43;;;9.63;;
25327;SDS011;13279;51.300;12.394;2023-03-01T13:58:19;15.20;;;9.73;;
25327;SDS011;13279;51.300;12.394;2023-03-01T14:01:00;19.53;;;9.83;;
25327;SDS011;13279;51.300;12.394;2023-03-01T14:03:29;20.20;;;9.20;;
25327;SDS011;13279;51.300;12.394;2023-03-01T14:05:59;16.37;;;9.23;;
25327;SDS011;13279;51.300;12.394;2023-03-01T14:08:31;17.63;;;9.90;;
25327;SDS011;13279;51.300;12.394;2023-03-01T14:14:13;17.67;;;9.33;;
25327;SDS011;13279;51.300;12.394;2023-03-01T14:16:56;16.37;;;8.67;;
25327;SDS011;13279;51.300;12.394;2023-03-01T14:19:30;15.90;;;9.00;;
25327;SDS011;13279;51.300;12.394;2023-03-01T14:22:12;17.73;;;8.30;;
25327;SDS011;13279;51.300;12.394;2023-03-01T14:24:46;14.83;;;8.73;;
25327;SDS011;13279;51.300;12.394;2023-03-01T14:27:19;18.70;;;9.33;;
25327;SDS011;13279;51.300;12.394;2023-03-01T14:29:53;15.00;;;8.27;;
25327;SDS011;13279;51.300;12.394;2023-03-01T14:32:24;16.73;;;8.83;;
25327;SDS011;13279;51.300;12.394;2023-03-01T14:34:53;15.20;;;8.83;;
25327;SDS011;13279;51.300;12.394;2023-03-01T14:37:22;15.93;;;9.13;;
25327;SDS011;13279;51.300;12.394;2023-03-01T14:39:51;15.27;;;8.77;;
25327;SDS011;13279;51.300;12.394;2023-03-01T14:42:21;15.67;;;9.20;;
25327;SDS011;13279;51.300;12.394;2023-03-01T14:44:52;15.47;;;7.90;;
25327;SDS011;13279;51.300;12.394;2023-03-01T14:47:25;16.43;;;7.80;;
25327;SDS011;13279;51.300;12.394;2023-03-01T14:49:57;15.77;;;7.93;;
25327;SDS011;13279;51.300;12.394;2023-03-01T14:52:28;14.83;;;8.17;;
25327;SDS011;13279;51.300;12.394;2023-03-01T14:55:02;15.17;;;8.27;;
25327;SDS011;13279;51.300;12.394;2023-03-01T14:57:34;14.67;;;8.50;;
25327;SDS011;13279;51.300;12.394;2023-03-01T15:00:03;16.27;;;8.33;;
25327;SDS011;13279;51.300;12.394;2023-03-01T15:02:33;15.10;;;7.83;;